Time;durP1;ratioP1;P1;durP2;ratioP2;P2;SDS_P1;SDS_P2;PMS_P1;PMS_P2;Temp;Humidity;BMP_temperature;BMP_pressure;BME280_temperature;BME280_humidity;BME280_pressure;Samples;Min_cycle;Max_cycle;Signal;HPM_P1;HPM_P2
2021/08/14 00:00:46;;;;;;;15.68;5.95;;;;;;;16.81;85.67;100751.41;5019542;28;20342;-66
2021/08/14 00:03:12;;;;;;;11.30;5.45;;;;;;;16.82;86.15;100751.31;5003617;28;20050;-66
2021/08/14 00:05:39;;;;;;;10.40;5.78;;;;;;;16.79;85.87;100748.84;5036704;28;20756;-66
2021/08/14 00:08:06;;;;;;;15.65;6.05;;;;;;;16.81;85.49;100755.00;5036901;28;20060;-66
2021/08/14 00:10:33;;;;;;;12.88;5.63;;;;;;;16.79;85.09;100753.38;5036707;28;20192;-67
2021/08/14 00:12:59;;;;;;;14.20;5.57;;;;;;;16.78;85.22;100751.69;5036888;28;20049;-67
2021/08/14 00:15:26;;;;;;;10.50;5.47;;;;;;;16.79;85.00;100748.84;5036711;28;20427;-67
2021/08/14 00:17:53;;;;;;;12.18;5.03;;;;;;;16.69;84.68;100751.38;5019219;28;20112;-68
2021/08/14 00:20:20;;;;;;;14.43;5.35;;;;;;;16.68;84.49;100757.75;5036588;28;20049;-67
2021/08/14 00:22:46;;;;;;;11.98;5.05;;;;;;;16.58;84.92;100746.00;5017676;28;20046;-67
2021/08/14 00:25:13;;;;;;;13.52;5.50;;;;;;;16.64;84.68;100756.31;4983553;28;20060;-67
2021/08/14 00:27:40;;;;;;;13.10;5.30;;;;;;;16.50;86.01;100741.19;5016772;28;20062;-68
2021/08/14 00:30:07;;;;;;;11.85;4.63;;;;;;;16.52;85.89;100757.25;5016394;28;20062;-67
2021/08/14 00:32:34;;;;;;;12.65;5.03;;;;;;;16.49;86.33;100768.25;5016467;28;20081;-67
2021/08/14 00:35:00;;;;;;;13.40;5.03;;;;;;;16.49;86.08;100760.16;5016670;28;20108;-67
2021/08/14 00:37:27;;;;;;;11.48;5.93;;;;;;;16.48;86.27;100766.53;5016366;28;20384;-68
2021/08/14 00:39:54;;;;;;;13.43;5.53;;;;;;;16.41;86.27;100772.38;5016602;28;20135;-67
2021/08/14 00:42:20;;;;;;;13.02;5.30;;;;;;;16.39;86.54;100765.38;5016560;28;20045;-67
2021/08/14 00:44:47;;;;;;;15.25;5.38;;;;;;;16.39;86.32;100768.97;4999106;28;20054;-68
2021/08/14 00:47:13;;;;;;;13.70;6.18;;;;;;;16.41;85.91;100764.31;4999024;28;20054;-68
2021/08/14 00:49:40;;;;;;;11.48;5.55;;;;;;;16.40;85.95;100756.34;5016014;28;20046;-67
2021/08/14 00:52:07;;;;;;;13.70;5.65;;;;;;;16.46;85.54;100758.59;5016088;28;20089;-67
2021/08/14 00:54:33;;;;;;;13.95;6.55;;;;;;;16.48;85.29;100753.06;5032354;28;20096;-67
2021/08/14 00:57:00;;;;;;;16.63;5.70;;;;;;;16.47;85.26;100748.66;5035956;28;20053;-67
2021/08/14 00:59:30;;;;;;;12.63;6.15;;;;;;;16.47;85.38;100746.81;5036151;28;20057;-67
2021/08/14 01:02:00;;;;;;;15.98;6.40;;;;;;;16.40;85.58;100751.81;5035517;28;20042;-67
2021/08/14 01:04:28;;;;;;;19.75;6.22;;;;;;;16.36;85.60;100742.25;5018643;28;20136;-66
2021/08/14 01:06:55;;;;;;;15.27;5.80;;;;;;;16.39;85.60;100747.41;5018260;28;20057;-67
2021/08/14 01:09:23;;;;;;;20.58;6.75;;;;;;;16.41;84.98;100740.06;5036881;28;20049;-67
2021/08/14 01:11:50;;;;;;;13.90;6.20;;;;;;;16.41;84.82;100728.44;5035492;28;20112;-68
2021/08/14 01:14:16;;;;;;;16.00;6.50;;;;;;;16.36;85.02;100731.50;5018241;28;20045;-66
2021/08/14 01:16:43;;;;;;;11.73;6.03;;;;;;;16.33;85.11;100720.94;5035260;28;20053;-65
2021/08/14 01:19:10;;;;;;;13.25;6.00;;;;;;;16.31;84.91;100730.97;5018028;28;20346;-66
2021/08/14 01:21:37;;;;;;;18.13;6.78;;;;;;;16.28;85.38;100718.59;5026023;28;20057;-65
2021/08/14 01:24:04;;;;;;;13.68;6.57;;;;;;;16.27;85.79;100718.69;5015578;28;20393;-67
2021/08/14 01:26:31;;;;;;;16.90;6.68;;;;;;;16.27;85.46;100722.28;5015954;28;20050;-66
2021/08/14 01:28:58;;;;;;;10.95;6.50;;;;;;;16.20;85.90;100718.31;4998248;28;20054;-66
2021/08/14 01:31:25;;;;;;;10.23;6.00;;;;;;;16.10;86.86;100715.47;4998436;28;20053;-66
2021/08/14 01:33:52;;;;;;;16.48;6.55;;;;;;;16.01;87.23;100708.06;5015660;28;20077;-67
2021/08/14 01:36:19;;;;;;;13.63;5.78;;;;;;;16.05;87.14;100714.09;5015690;28;20049;-66
2021/08/14 01:38:57;;;;;;;16.33;6.30;;;;;;;15.87;87.87;100707.25;5015583;28;20124;-66
2021/08/14 01:41:24;;;;;;;15.70;6.60;;;;;;;15.89;87.64;100716.09;5015623;28;20207;-66
2021/08/14 01:44:06;;;;;;;15.02;6.60;;;;;;;15.89;88.15;100717.91;5015383;28;20700;-66
2021/08/14 01:46:41;;;;;;;13.77;5.97;;;;;;;15.87;88.19;100714.47;5015251;28;20403;-66
2021/08/14 01:49:08;;;;;;;13.48;6.70;;;;;;;15.77;88.61;100713.44;5015192;28;20108;-66
2021/08/14 01:51:35;;;;;;;12.60;6.25;;;;;;;15.80;88.55;100714.06;5015261;28;20045;-66
2021/08/14 01:54:06;;;;;;;14.60;6.75;;;;;;;15.79;88.54;100706.13;5026467;28;20053;-66
2021/08/14 01:56:33;;;;;;;;;;;;;;;15.84;88.61;100706.63;5035510;28;20111;-67
2021/08/14 01:59:01;;;;;;;13.30;6.00;;;;;;;15.87;88.18;100703.72;5035104;28;19975;-66
2021/08/14 02:01:28;;;;;;;14.52;7.38;;;;;;;15.87;88.16;100703.72;5016997;28;20054;-66
2021/08/14 02:03:55;;;;;;;14.27;7.30;;;;;;;15.96;87.78;100710.28;5034565;28;20099;-66
2021/08/14 02:06:24;;;;;;;13.35;7.00;;;;;;;15.85;88.14;100702.97;5034986;28;20061;-66
2021/08/14 02:08:52;;;;;;;12.70;6.63;;;;;;;15.79;88.55;100708.81;5034317;28;20057;-66
2021/08/14 02:11:22;;;;;;;20.20;6.82;;;;;;;15.83;88.56;100712.97;5017489;28;20056;-66
2021/08/14 02:13:50;;;;;;;17.55;7.50;;;;;;;15.75;88.32;100695.56;5034565;28;20054;-66
2021/08/14 02:16:17;;;;;;;16.40;6.13;;;;;;;15.74;88.77;100701.06;5034728;28;20107;-66
2021/08/14 02:18:44;;;;;;;16.45;7.57;;;;;;;15.74;88.60;100707.31;5034733;28;20388;-66
2021/08/14 02:21:11;;;;;;;15.82;7.18;;;;;;;15.62;89.69;100710.91;5028562;28;20439;-66
2021/08/14 02:23:38;;;;;;;16.60;6.40;;;;;;;15.60;90.03;100702.09;5014575;28;20058;-66
2021/08/14 02:26:07;;;;;;;12.07;5.88;;;;;;;15.51;90.15;100703.63;4997768;28;20108;-66
2021/08/14 02:28:34;;;;;;;17.30;6.60;;;;;;;15.56;89.72;100701.47;5014733;28;20045;-66
2021/08/14 02:31:02;;;;;;;12.57;5.80;;;;;;;15.55;89.31;100709.63;4997347;28;20058;-67
2021/08/14 02:33:30;;;;;;;16.30;6.43;;;;;;;15.59;89.15;100701.22;5014637;28;20057;-65
2021/08/14 02:35:57;;;;;;;10.90;6.57;;;;;;;15.51;89.36;100698.25;4997462;28;20046;-66
2021/08/14 02:38:23;;;;;;;15.80;7.25;;;;;;;15.54;89.88;100703.41;5014416;28;20108;-66
2021/08/14 02:40:50;;;;;;;14.27;6.20;;;;;;;15.56;89.26;100696.09;5014989;28;20061;-66
2021/08/14 02:43:18;;;;;;;15.60;6.93;;;;;;;15.61;88.58;100693.91;5014323;28;20312;-67
2021/08/14 02:45:45;;;;;;;14.77;6.35;;;;;;;15.60;88.48;100689.47;5014494;28;20049;-69
2021/08/14 02:48:12;;;;;;;14.20;6.30;;;;;;;15.56;88.61;100684.44;5014427;28;20054;-66
2021/08/14 02:50:42;;;;;;;12.02;5.88;;;;;;;15.59;88.10;100698.53;5014437;28;20517;-66
2021/08/14 02:53:09;;;;;;;16.75;6.57;;;;;;;15.60;87.48;100700.25;5018872;28;20438;-67
2021/08/14 02:55:36;;;;;;;16.65;6.28;;;;;;;15.54;87.95;100695.34;5016817;28;20107;-66
2021/08/14 02:58:03;;;;;;;21.23;6.57;;;;;;;15.52;88.68;100699.97;5034117;28;20107;-66
2021/08/14 03:00:30;;;;;;;10.30;5.78;;;;;;;15.44;89.34;100699.66;5034085;28;20049;-65
2021/08/14 03:02:57;;;;;;;15.15;6.90;;;;;;;15.38;89.18;100692.03;5033803;28;20496;-67
2021/08/14 03:05:24;;;;;;;14.48;6.38;;;;;;;15.37;88.63;100676.88;5034392;28;20107;-67
2021/08/14 03:07:51;;;;;;;17.90;7.28;;;;;;;15.41;88.72;100683.78;5034406;28;20076;-65
2021/08/14 03:10:18;;;;;;;16.40;5.97;;;;;;;15.39;88.84;100685.69;5016707;28;20081;-67
2021/08/14 03:12:45;;;;;;;12.90;6.53;;;;;;;15.37;88.87;100688.50;5018382;28;20069;-66
2021/08/14 03:15:12;;;;;;;14.60;6.13;;;;;;;15.38;88.50;100689.34;5038032;28;20111;-66
2021/08/14 03:17:38;;;;;;;17.38;5.88;;;;;;;15.33;88.94;100693.25;5037792;28;20056;-67
2021/08/14 03:20:06;;;;;;;13.68;6.55;;;;;;;15.26;89.50;100689.28;5037944;28;20045;-68
2021/08/14 03:22:33;;;;;;;13.70;6.28;;;;;;;15.28;89.39;100691.84;5020697;28;20042;-68
2021/08/14 03:25:00;;;;;;;13.38;6.70;;;;;;;15.25;89.64;100687.56;5018047;28;20050;-68
2021/08/14 03:27:27;;;;;;;13.35;6.63;;;;;;;15.15;90.17;100686.53;5018117;28;20065;-67
2021/08/14 03:29:53;;;;;;;18.48;5.97;;;;;;;15.15;89.99;100684.66;5017557;28;20093;-68
2021/08/14 03:32:20;;;;;;;17.75;6.47;;;;;;;15.11;90.47;100693.06;5000392;28;20505;-68
2021/08/14 03:34:47;;;;;;;12.07;6.32;;;;;;;15.03;90.61;100677.50;5017824;28;20097;-66
2021/08/14 03:37:13;;;;;;;12.85;6.13;;;;;;;15.02;90.63;100683.84;5017801;28;20097;-66
2021/08/14 03:39:40;;;;;;;15.57;6.60;;;;;;;14.98;90.78;100676.97;5017751;28;20049;-66
2021/08/14 03:42:06;;;;;;;14.63;6.85;;;;;;;14.96;90.91;100676.19;5017494;28;20061;-66
2021/08/14 03:44:33;;;;;;;13.90;6.45;;;;;;;14.88;90.91;100671.41;4999918;28;20065;-67
2021/08/14 03:47:00;;;;;;;11.15;5.90;;;;;;;14.83;91.02;100669.03;5017474;28;20053;-67
2021/08/14 03:49:26;;;;;;;15.25;6.82;;;;;;;14.87;90.92;100683.13;5000207;28;20104;-67
2021/08/14 03:51:53;;;;;;;17.88;6.90;;;;;;;14.93;90.91;100682.69;5000341;28;20054;-67
2021/08/14 03:54:19;;;;;;;15.32;6.13;;;;;;;14.88;91.41;100692.91;5013931;28;20103;-67
2021/08/14 03:56:46;;;;;;;11.95;6.40;;;;;;;14.88;90.99;100687.53;5037134;28;20128;-67
2021/08/14 03:59:13;;;;;;;16.02;6.53;;;;;;;14.88;90.66;100688.34;5036829;28;20407;-67
2021/08/14 04:01:39;;;;;;;11.93;6.75;;;;;;;14.97;90.18;100684.16;5037138;28;20115;-67
2021/08/14 04:04:06;;;;;;;17.48;7.50;;;;;;;15.00;89.97;100693.84;5036981;28;20081;-67
2021/08/14 04:06:33;;;;;;;15.07;7.43;;;;;;;14.92;90.07;100689.88;5036887;28;20072;-67
2021/08/14 04:08:59;;;;;;;11.75;6.85;;;;;;;14.97;89.86;100694.91;5036766;28;20300;-66
2021/08/14 04:11:26;;;;;;;15.05;6.55;;;;;;;14.98;89.97;100688.56;5036807;28;20103;-65
2021/08/14 04:13:53;;;;;;;11.40;6.85;;;;;;;14.93;90.47;100693.44;5036580;28;20053;-68
2021/08/14 04:16:20;;;;;;;12.43;6.13;;;;;;;14.92;90.36;100686.31;5036951;28;20049;-67
2021/08/14 04:18:46;;;;;;;14.52;6.30;;;;;;;14.94;90.07;100685.25;5019161;28;20446;-68
2021/08/14 04:21:13;;;;;;;14.88;6.85;;;;;;;14.87;90.42;100681.28;5012944;28;20346;-67
2021/08/14 04:23:40;;;;;;;14.27;6.82;;;;;;;14.85;90.56;100687.72;5016046;28;20049;-68
2021/08/14 04:26:06;;;;;;;17.85;7.50;;;;;;;14.87;90.37;100683.13;5016815;28;20111;-66
2021/08/14 04:28:33;;;;;;;11.48;6.40;;;;;;;14.88;90.57;100693.72;5016958;28;20054;-66
2021/08/14 04:30:59;;;;;;;14.50;6.78;;;;;;;14.80;90.83;100686.25;5016395;28;20100;-66
2021/08/14 04:33:26;;;;;;;14.95;7.05;;;;;;;14.87;90.66;100693.88;4999392;28;20068;-68
2021/08/14 04:35:53;;;;;;;10.93;7.15;;;;;;;14.86;90.36;100687.63;5016593;28;20049;-68
2021/08/14 04:38:19;;;;;;;17.45;7.10;;;;;;;14.89;90.18;100684.72;5016471;28;20058;-67
2021/08/14 04:40:46;;;;;;;12.80;6.55;;;;;;;14.84;89.75;100686.00;4983117;28;20423;-66
2021/08/14 04:43:13;;;;;;;13.45;6.22;;;;;;;14.91;89.68;100695.34;5016476;28;20057;-66
2021/08/14 04:45:39;;;;;;;14.05;6.63;;;;;;;14.90;89.68;100691.81;5016167;28;20050;-66
2021/08/14 04:48:06;;;;;;;14.02;6.32;;;;;;;14.89;89.75;100691.91;5016240;28;20053;-67
2021/08/14 04:50:33;;;;;;;14.30;7.00;;;;;;;14.88;89.12;100690.22;4998901;28;20058;-67
2021/08/14 04:53:00;;;;;;;10.80;6.03;;;;;;;14.92;89.12;100692.56;5019307;28;20068;-66
2021/08/14 04:55:37;;;;;;;14.88;6.68;;;;;;;14.95;88.77;100688.81;5002752;28;20446;-66
2021/08/14 04:58:04;;;;;;;13.95;5.78;;;;;;;14.87;88.98;100683.13;5036109;28;20049;-68
2021/08/14 05:00:31;;;;;;;11.50;6.07;;;;;;;14.94;89.07;100698.69;5035726;28;20080;-66
2021/08/14 05:02:58;;;;;;;15.82;5.30;;;;;;;14.94;88.94;100696.00;5035526;28;20045;-68
2021/08/14 05:05:24;;;;;;;12.65;5.68;;;;;;;15.00;89.04;100694.72;5002249;28;20089;-67
2021/08/14 05:07:51;;;;;;;13.23;5.63;;;;;;;15.02;88.92;100695.47;5035563;28;20046;-67
2021/08/14 05:10:18;;;;;;;15.18;6.22;;;;;;;15.00;89.10;100692.03;5035549;28;20568;-69
2021/08/14 05:12:44;;;;;;;21.27;5.95;;;;;;;15.04;88.87;100684.59;5036001;28;20053;-66
2021/08/14 05:15:11;;;;;;;14.40;5.63;;;;;;;15.01;88.80;100674.94;5035477;28;20446;-66
2021/08/14 05:17:38;;;;;;;20.20;6.30;;;;;;;15.05;88.73;100681.78;5035681;28;20045;-66
2021/08/14 05:20:06;;;;;;;14.02;6.50;;;;;;;15.12;88.89;100692.09;5035658;28;20115;-66
2021/08/14 05:22:33;;;;;;;15.02;5.60;;;;;;;15.11;88.52;100688.56;5346517;22;20995;-70
2021/08/14 05:25:07;;;;;;;12.93;5.65;;;;;;;15.21;88.39;100683.38;4998231;28;20104;-69
2021/08/14 05:27:34;;;;;;;13.60;5.72;;;;;;;15.25;88.16;100676.78;5014739;28;20050;-68
2021/08/14 05:30:00;;;;;;;13.43;5.70;;;;;;;15.29;88.09;100678.31;5014478;28;20049;-69
2021/08/14 05:32:27;;;;;;;14.48;6.28;;;;;;;15.36;87.93;100688.63;5015269;28;20195;-68
2021/08/14 05:34:53;;;;;;;13.02;5.57;;;;;;;15.32;88.16;100680.75;4997992;28;20053;-70
2021/08/14 05:37:20;;;;;;;18.08;6.90;;;;;;;15.41;87.26;100679.22;5014386;28;20049;-69
2021/08/14 05:39:47;;;;;;;13.65;5.55;;;;;;;15.48;86.52;100683.19;4998349;28;20068;-69
2021/08/14 05:42:13;;;;;;;17.00;5.57;;;;;;;15.49;86.64;100678.69;5015054;28;20061;-68
2021/08/14 05:44:40;;;;;;;13.02;5.10;;;;;;;15.51;87.91;100681.25;4997271;28;20042;-66
2021/08/14 05:47:07;;;;;;;15.70;6.07;;;;;;;15.54;88.08;100691.78;5013571;28;20054;-66
2021/08/14 05:49:33;;;;;;;13.27;5.63;;;;;;;15.53;87.69;100685.53;5009027;28;20042;-68
2021/08/14 05:52:01;;;;;;;10.38;5.35;;;;;;;15.57;88.11;100696.94;5011954;28;20050;-68
2021/08/14 05:54:27;;;;;;;18.95;5.97;;;;;;;15.59;87.59;100686.94;5014694;28;20120;-65
2021/08/14 05:56:54;;;;;;;12.25;5.53;;;;;;;15.68;86.84;100685.41;5002220;28;20042;-67
2021/08/14 05:59:21;;;;;;;15.80;5.80;;;;;;;15.67;87.22;100692.59;4995648;28;20118;-68
2021/08/14 06:01:47;;;;;;;18.42;6.15;;;;;;;15.65;87.44;100677.53;4995284;28;20100;-67
2021/08/14 06:04:14;;;;;;;20.83;6.15;;;;;;;15.76;85.35;100685.69;4994062;28;20054;-67
2021/08/14 06:06:43;;;;;;;16.10;5.80;;;;;;;15.76;84.84;100688.38;4994374;28;20355;-68
2021/08/14 06:09:11;;;;;;;14.80;6.45;;;;;;;15.84;84.77;100683.25;4995329;28;20054;-68
2021/08/14 06:11:38;;;;;;;15.02;6.25;;;;;;;15.86;84.70;100689.38;4989118;28;20051;-68
2021/08/14 06:14:05;;;;;;;17.08;6.80;;;;;;;15.86;83.94;100689.38;4995283;28;20058;-67
2021/08/14 06:16:32;;;;;;;24.88;6.78;;;;;;;15.93;84.51;100694.34;4993993;28;20050;-68
2021/08/14 06:18:59;;;;;;;13.48;5.85;;;;;;;15.93;83.75;100697.03;4995414;28;20132;-68
2021/08/14 06:21:26;;;;;;;16.13;5.85;;;;;;;15.95;83.10;100689.72;4993458;28;20097;-67
2021/08/14 06:23:52;;;;;;;19.27;6.03;;;;;;;16.04;83.64;100694.41;4977215;28;20046;-68
2021/08/14 06:26:19;;;;;;;16.15;6.38;;;;;;;16.10;84.31;100702.00;4989318;28;20119;-69
2021/08/14 06:28:45;;;;;;;18.65;5.60;;;;;;;16.16;83.30;100700.66;4991002;28;20058;-71
2021/08/14 06:31:14;;;;;;;18.52;6.20;;;;;;;16.20;82.28;100704.88;4977570;28;20053;-71
2021/08/14 06:33:41;;;;;;;14.05;5.75;;;;;;;16.20;81.38;100698.59;4994739;28;20050;-68
2021/08/14 06:36:08;;;;;;;20.85;5.78;;;;;;;16.32;81.42;100703.06;4994354;28;20050;-69
2021/08/14 06:38:36;;;;;;;15.25;4.97;;;;;;;16.33;81.47;100702.06;4983314;28;20513;-69
2021/08/14 06:41:03;;;;;;;20.52;5.82;;;;;;;16.33;81.29;100691.31;4992906;28;20127;-70
2021/08/14 06:43:29;;;;;;;12.23;5.70;;;;;;;16.30;81.49;100680.78;4977294;28;20046;-70
2021/08/14 06:45:57;;;;;;;17.27;5.63;;;;;;;16.37;79.80;100698.19;4982229;28;20359;-70
2021/08/14 06:48:23;;;;;;;13.63;5.70;;;;;;;16.36;80.02;100704.56;4965577;28;20074;-69
2021/08/14 06:50:50;;;;;;;13.32;5.95;;;;;;;16.39;80.86;100698.91;4996991;28;20101;-70
2021/08/14 06:53:16;;;;;;;16.38;5.57;;;;;;;16.45;79.75;100702.97;4995120;28;20400;-68
2021/08/14 06:55:43;;;;;;;15.07;5.25;;;;;;;16.49;79.81;100703.56;4977613;28;20065;-68
2021/08/14 06:58:10;;;;;;;22.73;5.15;;;;;;;16.53;79.66;100699.69;4989385;28;20101;-68
2021/08/14 07:00:36;;;;;;;14.57;5.28;;;;;;;16.55;79.78;100700.41;4971533;28;20124;-69
2021/08/14 07:03:06;;;;;;;19.60;4.93;;;;;;;16.57;80.15;100698.47;4997129;28;20046;-69
2021/08/14 07:05:32;;;;;;;16.17;4.85;;;;;;;16.65;79.54;100696.03;4994395;28;20113;-69
2021/08/14 07:07:59;;;;;;;14.73;5.10;;;;;;;16.62;79.45;100698.94;4997494;28;20042;-69
2021/08/14 07:10:26;;;;;;;14.07;5.10;;;;;;;16.60;77.71;100684.75;4998250;28;20081;-70
2021/08/14 07:12:52;;;;;;;16.83;5.10;;;;;;;16.67;78.17;100685.97;4988801;28;20053;-76
2021/08/14 07:15:20;;;;;;;14.30;4.10;;;;;;;16.53;76.73;100668.22;4990640;28;20425;-71
2021/08/14 07:17:50;;;;;;;13.70;3.67;;;;;;;16.67;77.13;100683.28;4998202;28;20054;-70
2021/08/14 07:20:16;;;;;;;10.05;3.95;;;;;;;16.73;76.77;100684.66;4988516;28;20055;-73
2021/08/14 07:22:43;;;;;;;14.32;3.72;;;;;;;16.80;76.82;100679.63;4967694;28;20090;-70
2021/08/14 07:25:10;;;;;;;15.50;4.53;;;;;;;16.88;76.73;100677.16;5006091;28;20089;-71
2021/08/14 07:27:37;;;;;;;17.45;3.80;;;;;;;17.02;74.59;100677.94;4996977;28;20082;-73
2021/08/14 07:30:04;;;;;;;13.82;3.60;;;;;;;16.99;74.35;100672.78;4989179;28;20435;-68
2021/08/14 07:32:31;;;;;;;14.43;3.50;;;;;;;17.13;73.46;100685.16;4998165;28;20051;-72
2021/08/14 07:34:58;;;;;;;16.10;4.05;;;;;;;17.20;74.42;100687.25;5006350;28;20103;-70
2021/08/14 07:37:24;;;;;;;14.90;4.00;;;;;;;17.25;74.27;100689.56;4998045;28;20050;-72
2021/08/14 07:39:51;;;;;;;12.68;3.40;;;;;;;17.21;72.92;100667.38;4998155;28;20096;-70
2021/08/14 07:42:18;;;;;;;13.68;3.42;;;;;;;17.37;72.86;100672.38;4996705;28;20058;-72
2021/08/14 07:44:44;;;;;;;13.45;4.15;;;;;;;17.43;74.30;100681.81;4998061;28;20050;-74
2021/08/14 07:47:14;;;;;;;11.10;3.60;;;;;;;17.45;72.37;100687.97;4997783;28;20061;-72
2021/08/14 07:49:41;;;;;;;15.05;3.28;;;;;;;17.48;71.19;100679.59;4997791;28;20105;-70
2021/08/14 07:52:08;;;;;;;14.48;3.80;;;;;;;17.47;71.72;100677.03;4980358;28;20054;-70
2021/08/14 07:54:35;;;;;;;12.82;3.40;;;;;;;17.46;69.86;100676.19;4997496;28;20047;-70
2021/08/14 07:57:02;;;;;;;12.52;3.47;;;;;;;17.54;70.21;100688.19;4997051;28;20069;-71
2021/08/14 07:59:29;;;;;;;18.45;3.40;;;;;;;17.45;69.29;100658.28;4996567;28;20050;-72
2021/08/14 08:01:55;;;;;;;15.65;3.78;;;;;;;17.69;70.88;100681.50;4997266;28;20106;-73
2021/08/14 08:04:22;;;;;;;15.57;4.88;;;;;;;17.66;71.18;100670.97;4997107;28;20051;-73
2021/08/14 08:06:49;;;;;;;15.98;3.63;;;;;;;17.74;72.28;100690.09;4980159;28;20046;-72
2021/08/14 08:09:16;;;;;;;15.77;4.90;;;;;;;17.80;72.90;100682.47;4979645;28;20081;-69
2021/08/14 08:11:42;;;;;;;12.43;4.40;;;;;;;17.85;73.25;100683.78;4996614;28;20057;-67
2021/08/14 08:14:09;;;;;;;26.90;5.35;;;;;;;17.94;70.71;100682.16;4995285;28;20054;-67
2021/08/14 08:16:35;;;;;;;17.48;4.75;;;;;;;17.98;70.57;100680.06;5000072;28;20046;-67
2021/08/14 08:19:02;;;;;;;15.30;5.50;;;;;;;18.04;68.43;100683.09;4979921;28;20065;-69
2021/08/14 08:21:29;;;;;;;13.32;4.05;;;;;;;18.12;68.42;100681.59;4997004;28;20075;-67
2021/08/14 08:23:56;;;;;;;11.57;4.45;;;;;;;18.17;68.72;100682.94;4996839;28;20117;-67
2021/08/14 08:26:22;;;;;;;13.52;4.50;;;;;;;18.19;69.22;100678.25;4997292;28;20061;-68
2021/08/14 08:28:49;;;;;;;16.42;4.20;;;;;;;18.21;69.81;100670.03;4997311;28;20058;-68
2021/08/14 08:31:16;;;;;;;15.85;4.38;;;;;;;18.35;69.77;100673.41;4997494;28;20078;-68
2021/08/14 08:33:42;;;;;;;12.95;3.85;;;;;;;18.42;70.00;100671.88;4996876;28;20509;-69
2021/08/14 08:36:09;;;;;;;16.65;4.22;;;;;;;18.52;66.93;100678.19;4996970;28;20058;-68
2021/08/14 08:38:36;;;;;;;9.75;3.90;;;;;;;18.70;68.34;100669.47;4996931;28;20104;-68
2021/08/14 08:41:02;;;;;;;11.00;4.22;;;;;;;18.73;67.24;100670.06;4996862;28;20360;-68
2021/08/14 08:43:29;;;;;;;15.50;4.15;;;;;;;18.80;66.08;100664.97;4997216;28;20050;-69
2021/08/14 08:45:56;;;;;;;11.93;4.10;;;;;;;18.73;65.18;100658.38;4996967;28;20054;-68
2021/08/14 08:48:23;;;;;;;9.68;3.55;;;;;;;18.80;64.17;100670.38;4996732;28;20051;-67
2021/08/14 08:50:54;;;;;;;20.00;4.22;;;;;;;18.91;64.47;100672.13;4979668;28;20192;-67
2021/08/14 08:53:20;;;;;;;13.55;3.75;;;;;;;18.99;64.03;100666.03;5002458;28;20050;-68
2021/08/14 08:55:47;;;;;;;12.15;3.53;;;;;;;19.09;62.56;100664.28;5016297;28;20142;-68
2021/08/14 08:58:15;;;;;;;9.68;3.58;;;;;;;19.10;63.46;100676.81;4998884;28;20474;-68
2021/08/14 09:00:41;;;;;;;15.93;4.03;;;;;;;19.13;64.70;100679.22;5016058;28;20054;-68
2021/08/14 09:03:13;;;;;;;12.98;3.10;;;;;;;19.24;61.12;100680.97;4997357;28;20344;-67
2021/08/14 09:05:51;;;;;;;13.63;3.33;;;;;;;19.20;58.68;100659.72;4996698;28;20050;-69
2021/08/14 09:08:19;;;;;;;13.07;3.53;;;;;;;19.31;59.47;100667.75;4996671;28;20054;-69
2021/08/14 09:10:46;;;;;;;10.32;3.38;;;;;;;19.29;60.69;100664.34;4979087;28;20096;-70
2021/08/14 09:13:18;;;;;;;9.07;3.10;;;;;;;19.33;57.92;100681.16;4996694;28;20054;-70
2021/08/14 09:15:45;;;;;;;9.02;3.05;;;;;;;19.44;56.17;100678.31;4996354;28;20073;-67
2021/08/14 09:18:15;;;;;;;10.95;2.65;;;;;;;19.49;55.93;100664.34;4980530;28;20054;-70
2021/08/14 09:20:53;;;;;;;9.68;2.78;;;;;;;19.59;55.72;100672.50;4996445;28;20050;-69
2021/08/14 09:23:22;;;;;;;7.75;2.30;;;;;;;19.72;56.11;100678.50;4995993;28;20058;-69
2021/08/14 09:25:53;;;;;;;10.35;3.38;;;;;;;19.74;55.68;100665.69;4978684;28;20454;-71
2021/08/14 09:28:37;;;;;;;9.45;3.00;;;;;;;19.78;55.46;100664.38;4979219;28;20058;-69
2021/08/14 09:31:05;;;;;;;9.88;2.35;;;;;;;19.87;54.06;100665.41;4990144;28;20104;-69
2021/08/14 09:33:34;;;;;;;12.30;2.70;;;;;;;19.93;53.92;100667.53;4996026;28;20080;-68
2021/08/14 09:36:06;;;;;;;11.38;3.22;;;;;;;19.97;55.11;100649.19;4996281;28;20046;-70
2021/08/14 09:38:41;;;;;;;9.23;3.30;;;;;;;20.13;55.48;100653.16;4978804;28;20050;-68
2021/08/14 09:41:13;;;;;;;8.07;2.60;;;;;;;20.32;54.53;100655.00;4995908;28;20449;-70
2021/08/14 09:43:41;;;;;;;8.75;2.90;;;;;;;20.40;54.03;100652.41;4996088;28;20050;-69
2021/08/14 09:46:08;;;;;;;12.20;2.60;;;;;;;20.45;52.37;100655.53;4995677;28;20423;-68
2021/08/14 09:48:35;;;;;;;10.57;3.00;;;;;;;20.45;52.74;100652.81;4978884;28;20059;-70
2021/08/14 09:51:03;;;;;;;9.27;2.53;;;;;;;20.53;52.95;100652.06;4978426;28;20457;-68
2021/08/14 09:53:30;;;;;;;6.63;2.10;;;;;;;20.62;51.70;100655.75;4995743;28;20054;-69
2021/08/14 09:56:06;;;;;;;6.88;2.65;;;;;;;20.72;53.35;100647.59;4995571;28;20502;-70
2021/08/14 09:58:41;;;;;;;7.20;2.28;;;;;;;20.74;51.39;100648.28;4996184;28;20327;-69
2021/08/14 10:01:08;;;;;;;7.57;2.38;;;;;;;20.83;50.70;100654.69;4994600;28;20141;-70
2021/08/14 10:03:36;;;;;;;7.97;2.35;;;;;;;20.90;50.95;100653.13;4995338;28;20088;-68
2021/08/14 10:06:03;;;;;;;9.95;3.20;;;;;;;21.02;52.28;100646.50;4995353;28;20100;-67
2021/08/14 10:08:34;;;;;;;10.68;2.70;;;;;;;21.17;51.41;100635.13;4995362;28;20124;-67
2021/08/14 10:11:07;;;;;;;13.93;3.33;;;;;;;21.33;50.77;100633.59;4995206;28;20058;-69
2021/08/14 10:13:37;;;;;;;8.60;2.63;;;;;;;21.41;51.42;100639.97;4978894;28;20332;-69
2021/08/14 10:16:04;;;;;;;10.07;2.47;;;;;;;21.53;50.98;100634.34;4978405;28;20046;-69
2021/08/14 10:18:31;;;;;;;8.40;2.55;;;;;;;21.70;51.46;100632.66;4994345;28;20089;-67
2021/08/14 10:20:58;;;;;;;8.63;2.63;;;;;;;21.80;49.66;100627.16;4994121;28;20105;-67
2021/08/14 10:23:25;;;;;;;8.35;3.20;;;;;;;21.81;48.71;100624.28;4994367;28;20066;-69
2021/08/14 10:26:01;;;;;;;9.82;2.95;;;;;;;21.73;49.72;100621.47;4995011;28;20065;-68
2021/08/14 10:28:51;;;;;;;9.35;3.35;;;;;;;22.01;50.29;100623.25;4995088;28;20050;-69
2021/08/14 10:31:38;;;;;;;9.82;2.85;;;;;;;22.17;47.45;100625.25;4994378;28;20054;-70
2021/08/14 10:34:11;;;;;;;7.88;2.58;;;;;;;22.35;47.93;100631.47;4980815;28;20121;-69
2021/08/14 10:36:44;;;;;;;8.02;2.75;;;;;;;22.35;47.11;100626.03;4995043;28;20074;-67
2021/08/14 10:39:27;;;;;;;7.22;2.50;;;;;;;22.39;46.45;100630.16;4995021;28;20051;-70
2021/08/14 10:41:57;;;;;;;10.00;2.53;;;;;;;22.44;48.10;100616.06;4995080;28;20296;-67
2021/08/14 10:44:50;;;;;;;7.65;1.95;;;;;;;22.75;46.50;100620.16;4994083;28;20148;-67
2021/08/14 10:47:32;;;;;;;10.80;3.08;;;;;;;22.86;45.40;100622.63;4994350;28;20051;-68
2021/08/14 10:49:59;;;;;;;8.05;2.85;;;;;;;22.82;46.13;100618.50;4995139;28;20058;-70
2021/08/14 10:52:37;;;;;;;6.82;2.42;;;;;;;22.79;45.81;100613.41;4993964;28;20054;-68
2021/08/14 10:55:12;;;;;;;9.85;2.97;;;;;;;22.94;45.80;100613.63;4993992;28;20042;-70
2021/08/14 10:57:45;;;;;;;7.20;2.92;;;;;;;23.02;45.94;100615.53;4995260;28;20054;-69
2021/08/14 11:00:15;;;;;;;8.07;3.03;;;;;;;23.08;47.27;100611.31;4995236;28;20054;-70
2021/08/14 11:03:04;;;;;;;10.85;2.88;;;;;;;23.26;46.41;100622.91;4995280;28;20502;-68
2021/08/14 11:05:31;;;;;;;9.23;2.58;;;;;;;23.34;45.33;100608.50;4995249;28;20042;-68
2021/08/14 11:08:00;;;;;;;13.48;3.00;;;;;;;23.35;45.53;100609.38;4994843;28;20108;-68
2021/08/14 11:10:38;;;;;;;4.50;2.20;;;;;;;23.47;46.79;100613.47;4993614;28;20050;-69
2021/08/14 11:13:30;;;;;;;8.93;2.80;;;;;;;23.62;47.48;100604.66;4995189;28;20124;-69
2021/08/14 11:15:58;;;;;;;8.52;2.80;;;;;;;23.92;47.74;100608.56;4994612;28;20116;-68
2021/08/14 11:18:52;;;;;;;7.47;2.65;;;;;;;23.77;45.77;100596.63;4994925;28;20050;-68
2021/08/14 11:21:45;;;;;;;6.80;2.70;;;;;;;23.90;46.98;100601.59;4995024;28;20054;-67
2021/08/14 11:24:38;;;;;;;9.20;2.47;;;;;;;23.97;45.15;100597.16;4994619;28;20395;-71